Main page
METAR-TAF:

METAR-TAF

Airports :

Gwadar International Airport

Gwadar, Pakistan

latitude: 25-13-59N, longitude: 062-19-46E, elevation: 29 m

METAR: missing

Time: 13:21 (08:21 UTC)

Forecast

The report was made 4 hours and 51 minutes ago, at 03:30 UTC
Forecast valid from 30 at 06 UTC to 31 at 06 UTC
Wind 7 kt from the South with gusts up to 17 kt
Visibility: 5000 m
Scattered clouds at a height of 3000 ft
Broken clouds at a height of 10000 ft
haze
Becoming
from 30 at 16 UTC to 30 at 18 UTC
Wind 7 kt from the Southwest
Visibility: 3000 m
Scattered clouds at a height of 2000 ft
Broken clouds at a height of 3000 ft
haze
Temporary
from 31 at 00 UTC to 31 at 04 UTC
Wind kt from the North
Visibility: 2000 m
Scattered clouds at a height of 1800 ft
Broken clouds at a height of 3000 ft
mist

TAF: OPGD 300330Z 3006/3106 18007G17KT 5000 HZ SCT030 BKN100 BECMG 3016/3018 23007KT 3000 HZ SCT020 BKN030 TEMPO 3100/3104 00000KT 2000 BR SCT018 BKN030

Weather observations and forecasts of more than 4000 airports (METAR and TAF reports).

The available stations are represented by yellow and red dots on the map.

Hover mouse over dot to see the name of the station.

Then click to see weather observations and forecasts.

To change the map : click on the green buttons with a black cross to zoom in, on the green button with a dash to zoom out, or on the green arrows for adjacent maps.


METAR-TAF: